sensor_id;sensor_type;location;lat;lon;timestamp;temperature;humidity
65239;SHT30;51827;51.186;6.926;2023-05-24T00:00:22;22.24;54.51
65239;SHT30;51827;51.186;6.926;2023-05-24T00:01:23;22.28;54.48
65239;SHT30;51827;51.186;6.926;2023-05-24T00:02:23;22.22;54.52
65239;SHT30;51827;51.186;6.926;2023-05-24T00:03:23;22.25;54.46
65239;SHT30;51827;51.186;6.926;2023-05-24T00:04:23;22.28;54.51
65239;SHT30;51827;51.186;6.926;2023-05-24T00:05:24;22.25;54.48
65239;SHT30;51827;51.186;6.926;2023-05-24T00:06:25;22.25;54.49
65239;SHT30;51827;51.186;6.926;2023-05-24T00:07:25;22.25;54.47
65239;SHT30;51827;51.186;6.926;2023-05-24T00:08:26;22.22;54.48
65239;SHT30;51827;51.186;6.926;2023-05-24T00:09:26;22.25;54.51
65239;SHT30;51827;51.186;6.926;2023-05-24T00:10:26;22.24;54.45
65239;SHT30;51827;51.186;6.926;2023-05-24T00:11:26;22.25;54.45
65239;SHT30;51827;51.186;6.926;2023-05-24T00:12:27;22.25;54.48
65239;SHT30;51827;51.186;6.926;2023-05-24T00:13:27;22.22;54.47
65239;SHT30;51827;51.186;6.926;2023-05-24T00:14:27;22.24;54.45
65239;SHT30;51827;51.186;6.926;2023-05-24T00:15:28;22.27;54.49
65239;SHT30;51827;51.186;6.926;2023-05-24T00:16:28;22.22;54.45
65239;SHT30;51827;51.186;6.926;2023-05-24T00:17:28;22.24;54.48
65239;SHT30;51827;51.186;6.926;2023-05-24T00:18:29;22.22;54.45
65239;SHT30;51827;51.186;6.926;2023-05-24T00:19:29;22.22;54.49
65239;SHT30;51827;51.186;6.926;2023-05-24T00:20:29;22.22;54.46
65239;SHT30;51827;51.186;6.926;2023-05-24T00:21:30;22.24;54.49
65239;SHT30;51827;51.186;6.926;2023-05-24T00:22:30;22.22;54.51
65239;SHT30;51827;51.186;6.926;2023-05-24T00:23:30;22.21;54.57
65239;SHT30;51827;51.186;6.926;2023-05-24T00:24:30;22.24;54.45
65239;SHT30;51827;51.186;6.926;2023-05-24T00:25:31;22.22;54.42
65239;SHT30;51827;51.186;6.926;2023-05-24T00:26:31;22.21;54.46
65239;SHT30;51827;51.186;6.926;2023-05-24T00:27:31;22.20;54.44
65239;SHT30;51827;51.186;6.926;2023-05-24T00:28:32;22.21;54.42
65239;SHT30;51827;51.186;6.926;2023-05-24T00:29:32;22.21;54.42
65239;SHT30;51827;51.186;6.926;2023-05-24T00:30:32;22.18;54.47
65239;SHT30;51827;51.186;6.926;2023-05-24T00:31:33;22.24;54.50
65239;SHT30;51827;51.186;6.926;2023-05-24T00:32:33;22.20;54.45
65239;SHT30;51827;51.186;6.926;2023-05-24T00:33:33;22.21;54.45
65239;SHT30;51827;51.186;6.926;2023-05-24T00:34:33;22.20;54.48
65239;SHT30;51827;51.186;6.926;2023-05-24T00:35:34;22.21;54.55
65239;SHT30;51827;51.186;6.926;2023-05-24T00:36:34;22.18;54.53
65239;SHT30;51827;51.186;6.926;2023-05-24T00:37:34;22.20;54.50
65239;SHT30;51827;51.186;6.926;2023-05-24T00:38:34;22.18;54.47
65239;SHT30;51827;51.186;6.926;2023-05-24T00:39:35;22.18;54.46
65239;SHT30;51827;51.186;6.926;2023-05-24T00:40:35;22.18;54.47
65239;SHT30;51827;51.186;6.926;2023-05-24T00:41:35;22.18;54.48
65239;SHT30;51827;51.186;6.926;2023-05-24T00:42:36;22.18;54.44
65239;SHT30;51827;51.186;6.926;2023-05-24T00:43:36;22.20;54.43
65239;SHT30;51827;51.186;6.926;2023-05-24T00:44:36;22.20;54.48
65239;SHT30;51827;51.186;6.926;2023-05-24T00:45:36;22.20;54.40
65239;SHT30;51827;51.186;6.926;2023-05-24T00:46:37;22.20;54.42
65239;SHT30;51827;51.186;6.926;2023-05-24T00:47:38;22.18;54.42
65239;SHT30;51827;51.186;6.926;2023-05-24T00:48:39;22.18;54.49
65239;SHT30;51827;51.186;6.926;2023-05-24T00:49:39;22.15;54.48
65239;SHT30;51827;51.186;6.926;2023-05-24T00:50:40;22.17;54.44
65239;SHT30;51827;51.186;6.926;2023-05-24T00:51:40;22.17;54.42
65239;SHT30;51827;51.186;6.926;2023-05-24T00:52:41;22.17;54.40
65239;SHT30;51827;51.186;6.926;2023-05-24T00:53:44;22.17;54.44
65239;SHT30;51827;51.186;6.926;2023-05-24T00:54:44;22.14;54.37
65239;SHT30;51827;51.186;6.926;2023-05-24T00:55:45;22.17;54.44
65239;SHT30;51827;51.186;6.926;2023-05-24T00:56:46;22.15;54.44
65239;SHT30;51827;51.186;6.926;2023-05-24T00:57:47;22.14;54.39
65239;SHT30;51827;51.186;6.926;2023-05-24T00:58:47;22.15;54.48
65239;SHT30;51827;51.186;6.926;2023-05-24T00:59:47;22.12;54.41
65239;SHT30;51827;51.186;6.926;2023-05-24T01:00:49;22.14;54.41
65239;SHT30;51827;51.186;6.926;2023-05-24T01:01:49;22.14;54.42
65239;SHT30;51827;51.186;6.926;2023-05-24T01:02:50;22.14;54.46
65239;SHT30;51827;51.186;6.926;2023-05-24T01:03:51;22.14;54.38
65239;SHT30;51827;51.186;6.926;2023-05-24T01:04:52;22.14;54.39
65239;SHT30;51827;51.186;6.926;2023-05-24T01:05:52;22.11;54.40
65239;SHT30;51827;51.186;6.926;2023-05-24T01:12:06;22.12;54.40
65239;SHT30;51827;51.186;6.926;2023-05-24T01:14:28;22.12;54.45
65239;SHT30;51827;51.186;6.926;2023-05-24T01:15:51;22.10;54.42
65239;SHT30;51827;51.186;6.926;2023-05-24T01:16:55;22.11;54.40
65239;SHT30;51827;51.186;6.926;2023-05-24T01:18:04;22.10;54.39
65239;SHT30;51827;51.186;6.926;2023-05-24T01:20:42;22.12;54.38
65239;SHT30;51827;51.186;6.926;2023-05-24T01:23:27;22.11;54.40
65239;SHT30;51827;51.186;6.926;2023-05-24T01:28:22;22.07;54.40
65239;SHT30;51827;51.186;6.926;2023-05-24T01:29:23;22.08;54.41
65239;SHT30;51827;51.186;6.926;2023-05-24T01:30:26;22.07;54.43
65239;SHT30;51827;51.186;6.926;2023-05-24T01:31:26;22.08;54.42
65239;SHT30;51827;51.186;6.926;2023-05-24T01:32:27;22.07;54.38
65239;SHT30;51827;51.186;6.926;2023-05-24T01:33:28;22.05;54.44
65239;SHT30;51827;51.186;6.926;2023-05-24T01:34:31;22.05;54.44
65239;SHT30;51827;51.186;6.926;2023-05-24T01:35:31;22.08;54.40
65239;SHT30;51827;51.186;6.926;2023-05-24T01:36:32;22.07;54.39
65239;SHT30;51827;51.186;6.926;2023-05-24T01:37:32;22.05;54.40
65239;SHT30;51827;51.186;6.926;2023-05-24T01:38:32;22.05;54.41
65239;SHT30;51827;51.186;6.926;2023-05-24T01:39:32;22.04;54.38
65239;SHT30;51827;51.186;6.926;2023-05-24T01:40:33;22.07;54.33
65239;SHT30;51827;51.186;6.926;2023-05-24T01:41:38;22.04;54.37
65239;SHT30;51827;51.186;6.926;2023-05-24T01:43:03;22.05;54.36
65239;SHT30;51827;51.186;6.926;2023-05-24T01:46:37;22.04;54.37
65239;SHT30;51827;51.186;6.926;2023-05-24T01:50:24;22.07;54.34
65239;SHT30;51827;51.186;6.926;2023-05-24T01:51:31;22.05;54.34
65239;SHT30;51827;51.186;6.926;2023-05-24T01:52:34;22.02;54.39
65239;SHT30;51827;51.186;6.926;2023-05-24T01:53:41;22.04;54.44
65239;SHT30;51827;51.186;6.926;2023-05-24T01:54:47;22.01;54.36
65239;SHT30;51827;51.186;6.926;2023-05-24T01:55:54;22.02;54.39
65239;SHT30;51827;51.186;6.926;2023-05-24T01:56:56;22.00;54.39
65239;SHT30;51827;51.186;6.926;2023-05-24T01:58:01;22.00;54.35
65239;SHT30;51827;51.186;6.926;2023-05-24T01:59:01;22.01;54.35
65239;SHT30;51827;51.186;6.926;2023-05-24T02:00:03;22.04;54.39
65239;SHT30;51827;51.186;6.926;2023-05-24T02:01:04;22.01;54.38
65239;SHT30;51827;51.186;6.926;2023-05-24T02:02:04;22.01;54.32
65239;SHT30;51827;51.186;6.926;2023-05-24T02:03:05;22.00;54.40
65239;SHT30;51827;51.186;6.926;2023-05-24T02:04:05;22.00;54.36
65239;SHT30;51827;51.186;6.926;2023-05-24T02:05:06;22.01;54.36
65239;SHT30;51827;51.186;6.926;2023-05-24T02:06:06;22.01;54.36
65239;SHT30;51827;51.186;6.926;2023-05-24T02:07:06;22.00;54.43
65239;SHT30;51827;51.186;6.926;2023-05-24T02:08:07;22.01;54.37
65239;SHT30;51827;51.186;6.926;2023-05-24T02:09:07;22.00;54.37
65239;SHT30;51827;51.186;6.926;2023-05-24T02:10:08;22.00;54.30
65239;SHT30;51827;51.186;6.926;2023-05-24T02:11:08;22.01;54.37
65239;SHT30;51827;51.186;6.926;2023-05-24T02:12:09;21.97;54.37
65239;SHT30;51827;51.186;6.926;2023-05-24T02:13:09;21.98;54.32
65239;SHT30;51827;51.186;6.926;2023-05-24T02:14:09;22.00;54.32
65239;SHT30;51827;51.186;6.926;2023-05-24T02:15:10;22.00;54.33
65239;SHT30;51827;51.186;6.926;2023-05-24T02:16:10;22.01;54.36
65239;SHT30;51827;51.186;6.926;2023-05-24T02:17:10;21.98;54.34
65239;SHT30;51827;51.186;6.926;2023-05-24T02:18:11;21.98;54.33
65239;SHT30;51827;51.186;6.926;2023-05-24T02:19:12;21.98;54.33
65239;SHT30;51827;51.186;6.926;2023-05-24T02:20:12;21.98;54.37
65239;SHT30;51827;51.186;6.926;2023-05-24T02:21:12;21.96;54.31
65239;SHT30;51827;51.186;6.926;2023-05-24T02:22:12;21.98;54.28
65239;SHT30;51827;51.186;6.926;2023-05-24T02:23:13;22.01;54.23
65239;SHT30;51827;51.186;6.926;2023-05-24T02:24:13;21.97;54.28
65239;SHT30;51827;51.186;6.926;2023-05-24T02:25:13;21.97;54.26
65239;SHT30;51827;51.186;6.926;2023-05-24T02:26:14;21.97;54.24
65239;SHT30;51827;51.186;6.926;2023-05-24T02:27:14;21.97;54.27
65239;SHT30;51827;51.186;6.926;2023-05-24T02:28:14;21.94;54.31
65239;SHT30;51827;51.186;6.926;2023-05-24T02:29:15;21.96;54.28
65239;SHT30;51827;51.186;6.926;2023-05-24T02:30:15;21.97;54.23
65239;SHT30;51827;51.186;6.926;2023-05-24T02:31:15;21.97;54.26
65239;SHT30;51827;51.186;6.926;2023-05-24T02:32:15;21.98;54.22
65239;SHT30;51827;51.186;6.926;2023-05-24T02:33:16;21.93;54.26
65239;SHT30;51827;51.186;6.926;2023-05-24T02:34:16;21.96;54.28
65239;SHT30;51827;51.186;6.926;2023-05-24T02:35:16;21.97;54.26
65239;SHT30;51827;51.186;6.926;2023-05-24T02:36:16;21.97;54.28
65239;SHT30;51827;51.186;6.926;2023-05-24T02:37:17;21.96;54.26
65239;SHT30;51827;51.186;6.926;2023-05-24T02:38:17;21.97;54.28
65239;SHT30;51827;51.186;6.926;2023-05-24T02:39:17;21.96;54.30
65239;SHT30;51827;51.186;6.926;2023-05-24T02:40:17;21.94;54.32
65239;SHT30;51827;51.186;6.926;2023-05-24T02:41:18;21.96;54.30
65239;SHT30;51827;51.186;6.926;2023-05-24T02:42:18;21.94;54.25
65239;SHT30;51827;51.186;6.926;2023-05-24T02:43:18;21.93;54.25
65239;SHT30;51827;51.186;6.926;2023-05-24T02:44:19;21.94;54.25
65239;SHT30;51827;51.186;6.926;2023-05-24T02:45:19;21.93;54.26
65239;SHT30;51827;51.186;6.926;2023-05-24T02:46:19;21.94;54.22
65239;SHT30;51827;51.186;6.926;2023-05-24T02:47:19;21.91;54.25
65239;SHT30;51827;51.186;6.926;2023-05-24T02:48:20;21.93;54.25
65239;SHT30;51827;51.186;6.926;2023-05-24T02:49:20;21.94;54.20
65239;SHT30;51827;51.186;6.926;2023-05-24T02:50:20;21.93;54.26
65239;SHT30;51827;51.186;6.926;2023-05-24T02:51:20;21.93;54.28
65239;SHT30;51827;51.186;6.926;2023-05-24T02:52:21;21.93;54.28
65239;SHT30;51827;51.186;6.926;2023-05-24T02:53:21;21.93;54.25
65239;SHT30;51827;51.186;6.926;2023-05-24T02:54:21;21.91;54.25
65239;SHT30;51827;51.186;6.926;2023-05-24T02:55:22;21.91;54.25
65239;SHT30;51827;51.186;6.926;2023-05-24T02:56:22;21.91;54.23
65239;SHT30;51827;51.186;6.926;2023-05-24T02:57:22;21.93;54.18
65239;SHT30;51827;51.186;6.926;2023-05-24T02:58:22;21.94;54.18
65239;SHT30;51827;51.186;6.926;2023-05-24T02:59:23;21.93;54.17
65239;SHT30;51827;51.186;6.926;2023-05-24T03:00:24;21.93;54.17
65239;SHT30;51827;51.186;6.926;2023-05-24T03:01:24;21.91;54.19
65239;SHT30;51827;51.186;6.926;2023-05-24T03:02:25;21.90;54.12
65239;SHT30;51827;51.186;6.926;2023-05-24T03:03:25;21.90;54.14
65239;SHT30;51827;51.186;6.926;2023-05-24T03:04:25;21.91;54.14
65239;SHT30;51827;51.186;6.926;2023-05-24T03:05:25;21.89;54.16
65239;SHT30;51827;51.186;6.926;2023-05-24T03:06:25;21.87;54.24
65239;SHT30;51827;51.186;6.926;2023-05-24T03:07:29;21.89;54.20
65239;SHT30;51827;51.186;6.926;2023-05-24T03:08:29;21.90;54.20
65239;SHT30;51827;51.186;6.926;2023-05-24T03:09:29;21.90;54.18
65239;SHT30;51827;51.186;6.926;2023-05-24T03:10:29;21.89;54.16
65239;SHT30;51827;51.186;6.926;2023-05-24T03:11:30;21.90;54.14
65239;SHT30;51827;51.186;6.926;2023-05-24T03:12:30;21.89;54.11
65239;SHT30;51827;51.186;6.926;2023-05-24T03:13:30;21.87;54.14
65239;SHT30;51827;51.186;6.926;2023-05-24T03:14:30;21.89;54.11
65239;SHT30;51827;51.186;6.926;2023-05-24T03:15:31;21.87;54.15
65239;SHT30;51827;51.186;6.926;2023-05-24T03:16:31;21.89;54.20
65239;SHT30;51827;51.186;6.926;2023-05-24T03:17:31;21.89;54.15
65239;SHT30;51827;51.186;6.926;2023-05-24T03:18:31;21.87;54.16
65239;SHT30;51827;51.186;6.926;2023-05-24T03:19:32;21.86;54.17
65239;SHT30;51827;51.186;6.926;2023-05-24T03:20:32;21.89;54.14
65239;SHT30;51827;51.186;6.926;2023-05-24T03:21:32;21.86;54.10
65239;SHT30;51827;51.186;6.926;2023-05-24T03:22:33;21.89;54.11
65239;SHT30;51827;51.186;6.926;2023-05-24T03:23:33;21.84;54.09
65239;SHT30;51827;51.186;6.926;2023-05-24T03:24:33;21.84;54.11
65239;SHT30;51827;51.186;6.926;2023-05-24T03:25:33;21.86;54.07
65239;SHT30;51827;51.186;6.926;2023-05-24T03:26:34;21.87;54.12
65239;SHT30;51827;51.186;6.926;2023-05-24T03:27:35;21.86;54.01
65239;SHT30;51827;51.186;6.926;2023-05-24T03:28:35;21.86;54.10
65239;SHT30;51827;51.186;6.926;2023-05-24T03:29:35;21.84;54.11
65239;SHT30;51827;51.186;6.926;2023-05-24T03:30:36;21.87;54.11
65239;SHT30;51827;51.186;6.926;2023-05-24T03:31:36;21.86;54.10
65239;SHT30;51827;51.186;6.926;2023-05-24T03:32:36;21.83;54.05
65239;SHT30;51827;51.186;6.926;2023-05-24T03:33:37;21.83;54.08
65239;SHT30;51827;51.186;6.926;2023-05-24T03:34:37;21.83;54.13
65239;SHT30;51827;51.186;6.926;2023-05-24T03:35:37;21.84;54.07
65239;SHT30;51827;51.186;6.926;2023-05-24T03:36:37;21.81;54.03
65239;SHT30;51827;51.186;6.926;2023-05-24T03:37:38;21.83;54.04
65239;SHT30;51827;51.186;6.926;2023-05-24T03:38:38;21.84;54.03
65239;SHT30;51827;51.186;6.926;2023-05-24T03:39:38;21.83;54.04
65239;SHT30;51827;51.186;6.926;2023-05-24T03:40:38;21.83;54.05
65239;SHT30;51827;51.186;6.926;2023-05-24T03:41:39;21.83;54.05
65239;SHT30;51827;51.186;6.926;2023-05-24T03:42:39;21.83;54.03
65239;SHT30;51827;51.186;6.926;2023-05-24T03:43:39;21.81;53.99
65239;SHT30;51827;51.186;6.926;2023-05-24T03:44:39;21.83;53.99
65239;SHT30;51827;51.186;6.926;2023-05-24T03:45:40;21.83;53.99
65239;SHT30;51827;51.186;6.926;2023-05-24T03:46:40;21.81;53.98
65239;SHT30;51827;51.186;6.926;2023-05-24T03:47:40;21.83;54.06
65239;SHT30;51827;51.186;6.926;2023-05-24T03:48:40;21.81;53.99
65239;SHT30;51827;51.186;6.926;2023-05-24T03:49:41;21.81;53.97
65239;SHT30;51827;51.186;6.926;2023-05-24T03:50:41;21.81;53.94
65239;SHT30;51827;51.186;6.926;2023-05-24T03:51:41;21.81;53.98
65239;SHT30;51827;51.186;6.926;2023-05-24T03:52:41;21.80;53.99
65239;SHT30;51827;51.186;6.926;2023-05-24T03:53:42;21.81;53.94
65239;SHT30;51827;51.186;6.926;2023-05-24T03:54:42;21.78;54.01
65239;SHT30;51827;51.186;6.926;2023-05-24T03:55:42;21.77;54.01
65239;SHT30;51827;51.186;6.926;2023-05-24T03:56:42;21.80;53.98
65239;SHT30;51827;51.186;6.926;2023-05-24T03:57:43;21.80;53.94
65239;SHT30;51827;51.186;6.926;2023-05-24T03:58:43;21.81;53.92
65239;SHT30;51827;51.186;6.926;2023-05-24T03:59:43;21.81;53.90
65239;SHT30;51827;51.186;6.926;2023-05-24T04:00:43;21.78;53.94
65239;SHT30;51827;51.186;6.926;2023-05-24T04:01:44;21.78;53.87
65239;SHT30;51827;51.186;6.926;2023-05-24T04:02:44;21.77;53.86
65239;SHT30;51827;51.186;6.926;2023-05-24T04:03:45;21.77;53.77
65239;SHT30;51827;51.186;6.926;2023-05-24T04:04:46;21.78;53.82
65239;SHT30;51827;51.186;6.926;2023-05-24T04:05:46;21.78;53.84
65239;SHT30;51827;51.186;6.926;2023-05-24T04:06:46;21.78;53.85
65239;SHT30;51827;51.186;6.926;2023-05-24T04:07:46;21.77;53.83
65239;SHT30;51827;51.186;6.926;2023-05-24T04:08:47;21.76;53.84
65239;SHT30;51827;51.186;6.926;2023-05-24T04:09:47;21.77;53.83
65239;SHT30;51827;51.186;6.926;2023-05-24T04:10:47;21.78;53.76
65239;SHT30;51827;51.186;6.926;2023-05-24T04:11:47;21.77;53.83
65239;SHT30;51827;51.186;6.926;2023-05-24T04:12:48;21.78;53.81
65239;SHT30;51827;51.186;6.926;2023-05-24T04:13:49;21.77;53.73
65239;SHT30;51827;51.186;6.926;2023-05-24T04:14:49;21.77;53.75
65239;SHT30;51827;51.186;6.926;2023-05-24T04:15:49;21.77;53.77
65239;SHT30;51827;51.186;6.926;2023-05-24T04:16:49;21.76;53.77
65239;SHT30;51827;51.186;6.926;2023-05-24T04:17:50;21.74;53.72
65239;SHT30;51827;51.186;6.926;2023-05-24T04:18:50;21.76;53.69
65239;SHT30;51827;51.186;6.926;2023-05-24T04:19:50;21.76;53.68
65239;SHT30;51827;51.186;6.926;2023-05-24T04:20:50;21.74;53.74
65239;SHT30;51827;51.186;6.926;2023-05-24T04:21:51;21.76;53.72
65239;SHT30;51827;51.186;6.926;2023-05-24T04:22:51;21.77;53.66
65239;SHT30;51827;51.186;6.926;2023-05-24T04:23:51;21.76;53.67
65239;SHT30;51827;51.186;6.926;2023-05-24T04:24:52;21.76;53.67
65239;SHT30;51827;51.186;6.926;2023-05-24T04:25:52;21.76;53.63
65239;SHT30;51827;51.186;6.926;2023-05-24T04:26:52;21.76;53.66
65239;SHT30;51827;51.186;6.926;2023-05-24T04:27:52;21.76;53.68
65239;SHT30;51827;51.186;6.926;2023-05-24T04:28:52;21.77;53.70
65239;SHT30;51827;51.186;6.926;2023-05-24T04:29:53;21.74;53.68
65239;SHT30;51827;51.186;6.926;2023-05-24T04:30:53;21.73;53.64
65239;SHT30;51827;51.186;6.926;2023-05-24T04:31:53;21.76;53.67
65239;SHT30;51827;51.186;6.926;2023-05-24T04:32:53;21.74;53.59
65239;SHT30;51827;51.186;6.926;2023-05-24T04:33:55;21.74;53.60
65239;SHT30;51827;51.186;6.926;2023-05-24T04:34:56;21.74;53.59
65239;SHT30;51827;51.186;6.926;2023-05-24T04:35:56;21.74;53.68
65239;SHT30;51827;51.186;6.926;2023-05-24T04:36:56;21.74;53.63
65239;SHT30;51827;51.186;6.926;2023-05-24T04:37:56;21.74;53.63
65239;SHT30;51827;51.186;6.926;2023-05-24T04:38:57;21.73;53.65
65239;SHT30;51827;51.186;6.926;2023-05-24T04:39:57;21.73;53.60
65239;SHT30;51827;51.186;6.926;2023-05-24T04:40:58;21.73;53.59
65239;SHT30;51827;51.186;6.926;2023-05-24T04:41:58;21.73;53.60
65239;SHT30;51827;51.186;6.926;2023-05-24T04:42:58;21.74;53.55
65239;SHT30;51827;51.186;6.926;2023-05-24T04:43:58;21.71;53.54
65239;SHT30;51827;51.186;6.926;2023-05-24T04:44:59;21.71;53.57
65239;SHT30;51827;51.186;6.926;2023-05-24T04:45:59;21.70;53.60
65239;SHT30;51827;51.186;6.926;2023-05-24T04:46:59;21.71;53.52
65239;SHT30;51827;51.186;6.926;2023-05-24T04:47:59;21.73;53.44
65239;SHT30;51827;51.186;6.926;2023-05-24T04:49:00;21.71;53.46
65239;SHT30;51827;51.186;6.926;2023-05-24T04:50:00;21.71;53.36
65239;SHT30;51827;51.186;6.926;2023-05-24T04:51:01;21.70;53.39
65239;SHT30;51827;51.186;6.926;2023-05-24T04:52:01;21.73;53.34
65239;SHT30;51827;51.186;6.926;2023-05-24T04:53:01;21.69;53.27
65239;SHT30;51827;51.186;6.926;2023-05-24T04:54:01;21.73;53.27
65239;SHT30;51827;51.186;6.926;2023-05-24T04:55:02;21.70;53.32
65239;SHT30;51827;51.186;6.926;2023-05-24T04:56:03;21.70;53.22
65239;SHT30;51827;51.186;6.926;2023-05-24T04:57:03;21.71;53.18
65239;SHT30;51827;51.186;6.926;2023-05-24T04:58:03;21.70;53.19
65239;SHT30;51827;51.186;6.926;2023-05-24T04:59:07;21.70;53.14
65239;SHT30;51827;51.186;6.926;2023-05-24T05:00:08;21.71;53.17
65239;SHT30;51827;51.186;6.926;2023-05-24T05:01:09;21.69;53.08
65239;SHT30;51827;51.186;6.926;2023-05-24T05:02:09;21.69;53.14
65239;SHT30;51827;51.186;6.926;2023-05-24T05:03:10;21.70;53.04
65239;SHT30;51827;51.186;6.926;2023-05-24T05:04:10;21.71;53.09
65239;SHT30;51827;51.186;6.926;2023-05-24T05:05:10;21.70;52.98
65239;SHT30;51827;51.186;6.926;2023-05-24T05:06:10;21.69;52.97
65239;SHT30;51827;51.186;6.926;2023-05-24T05:07:11;21.71;52.85
65239;SHT30;51827;51.186;6.926;2023-05-24T05:08:11;21.69;52.85
65239;SHT30;51827;51.186;6.926;2023-05-24T05:09:11;21.69;52.78
65239;SHT30;51827;51.186;6.926;2023-05-24T05:10:11;21.69;52.81
65239;SHT30;51827;51.186;6.926;2023-05-24T05:11:13;21.67;52.78
65239;SHT30;51827;51.186;6.926;2023-05-24T05:12:13;21.67;52.76
65239;SHT30;51827;51.186;6.926;2023-05-24T05:13:13;21.69;52.82
65239;SHT30;51827;51.186;6.926;2023-05-24T05:14:14;21.70;52.97
65239;SHT30;51827;51.186;6.926;2023-05-24T05:15:14;21.70;52.88
65239;SHT30;51827;51.186;6.926;2023-05-24T05:16:14;21.67;52.80
65239;SHT30;51827;51.186;6.926;2023-05-24T05:17:14;21.69;52.69
65239;SHT30;51827;51.186;6.926;2023-05-24T05:18:15;21.69;52.69
65239;SHT30;51827;51.186;6.926;2023-05-24T05:19:15;21.71;52.64
65239;SHT30;51827;51.186;6.926;2023-05-24T05:20:15;21.69;52.63
65239;SHT30;51827;51.186;6.926;2023-05-24T05:21:16;21.69;52.68
65239;SHT30;51827;51.186;6.926;2023-05-24T05:22:16;21.70;52.63
65239;SHT30;51827;51.186;6.926;2023-05-24T05:23:16;21.66;52.56
65239;SHT30;51827;51.186;6.926;2023-05-24T05:24:17;21.69;52.53
65239;SHT30;51827;51.186;6.926;2023-05-24T05:25:17;21.69;52.54
65239;SHT30;51827;51.186;6.926;2023-05-24T05:26:18;21.67;52.58
65239;SHT30;51827;51.186;6.926;2023-05-24T05:27:18;21.70;52.54
65239;SHT30;51827;51.186;6.926;2023-05-24T05:28:18;21.69;52.53
65239;SHT30;51827;51.186;6.926;2023-05-24T05:29:18;21.69;52.53
65239;SHT30;51827;51.186;6.926;2023-05-24T05:30:19;21.67;52.52
65239;SHT30;51827;51.186;6.926;2023-05-24T05:31:19;21.66;52.46
65239;SHT30;51827;51.186;6.926;2023-05-24T05:32:20;21.69;52.44
65239;SHT30;51827;51.186;6.926;2023-05-24T05:33:20;21.66;52.45
65239;SHT30;51827;51.186;6.926;2023-05-24T05:34:20;21.69;52.39
65239;SHT30;51827;51.186;6.926;2023-05-24T05:35:20;21.67;52.47
65239;SHT30;51827;51.186;6.926;2023-05-24T05:36:21;21.67;52.41
65239;SHT30;51827;51.186;6.926;2023-05-24T05:37:21;21.66;52.39
65239;SHT30;51827;51.186;6.926;2023-05-24T05:38:21;21.67;52.29
65239;SHT30;51827;51.186;6.926;2023-05-24T05:39:21;21.70;52.27
65239;SHT30;51827;51.186;6.926;2023-05-24T05:40:22;21.67;52.19
65239;SHT30;51827;51.186;6.926;2023-05-24T05:41:22;21.67;52.28
65239;SHT30;51827;51.186;6.926;2023-05-24T05:42:22;21.69;52.33
65239;SHT30;51827;51.186;6.926;2023-05-24T05:43:22;21.67;52.32
65239;SHT30;51827;51.186;6.926;2023-05-24T05:44:23;21.66;52.23
65239;SHT30;51827;51.186;6.926;2023-05-24T05:45:23;21.69;52.22
65239;SHT30;51827;51.186;6.926;2023-05-24T05:46:23;21.67;52.27
65239;SHT30;51827;51.186;6.926;2023-05-24T05:47:24;21.70;52.19
65239;SHT30;51827;51.186;6.926;2023-05-24T05:48:24;21.64;52.16
65239;SHT30;51827;51.186;6.926;2023-05-24T05:49:24;21.66;52.28
65239;SHT30;51827;51.186;6.926;2023-05-24T05:50:24;21.67;52.21
65239;SHT30;51827;51.186;6.926;2023-05-24T05:51:25;21.66;52.11
65239;SHT30;51827;51.186;6.926;2023-05-24T05:52:25;21.67;52.11
65239;SHT30;51827;51.186;6.926;2023-05-24T05:53:25;21.66;52.08
65239;SHT30;51827;51.186;6.926;2023-05-24T05:54:25;21.69;52.07
65239;SHT30;51827;51.186;6.926;2023-05-24T05:55:25;21.67;52.06
65239;SHT30;51827;51.186;6.926;2023-05-24T05:56:26;21.67;52.05
65239;SHT30;51827;51.186;6.926;2023-05-24T05:57:26;21.67;52.06
65239;SHT30;51827;51.186;6.926;2023-05-24T05:58:26;21.66;52.05
65239;SHT30;51827;51.186;6.926;2023-05-24T05:59:26;21.67;52.12
65239;SHT30;51827;51.186;6.926;2023-05-24T06:00:27;21.66;52.08
65239;SHT30;51827;51.186;6.926;2023-05-24T06:01:27;21.69;52.07
65239;SHT30;51827;51.186;6.926;2023-05-24T06:02:27;21.67;52.07
65239;SHT30;51827;51.186;6.926;2023-05-24T06:03:27;21.67;52.06
65239;SHT30;51827;51.186;6.926;2023-05-24T06:04:28;21.66;52.06
65239;SHT30;51827;51.186;6.926;2023-05-24T06:05:28;21.67;51.99
65239;SHT30;51827;51.186;6.926;2023-05-24T06:06:28;21.66;52.02
65239;SHT30;51827;51.186;6.926;2023-05-24T06:07:28;21.64;52.04
65239;SHT30;51827;51.186;6.926;2023-05-24T06:08:28;21.67;51.99
65239;SHT30;51827;51.186;6.926;2023-05-24T06:09:29;21.67;51.99
65239;SHT30;51827;51.186;6.926;2023-05-24T06:10:29;21.67;52.05
65239;SHT30;51827;51.186;6.926;2023-05-24T06:11:29;21.67;52.01
65239;SHT30;51827;51.186;6.926;2023-05-24T06:12:29;21.67;52.05
65239;SHT30;51827;51.186;6.926;2023-05-24T06:13:30;21.67;51.98
65239;SHT30;51827;51.186;6.926;2023-05-24T06:14:31;21.67;52.00
65239;SHT30;51827;51.186;6.926;2023-05-24T06:15:31;21.67;51.95
65239;SHT30;51827;51.186;6.926;2023-05-24T06:16:31;21.66;52.00
65239;SHT30;51827;51.186;6.926;2023-05-24T06:17:31;21.67;52.01
65239;SHT30;51827;51.186;6.926;2023-05-24T06:18:32;21.67;51.97
65239;SHT30;51827;51.186;6.926;2023-05-24T06:19:32;21.67;52.06
65239;SHT30;51827;51.186;6.926;2023-05-24T06:20:32;21.67;51.99
65239;SHT30;51827;51.186;6.926;2023-05-24T06:21:32;21.69;51.96
65239;SHT30;51827;51.186;6.926;2023-05-24T06:22:35;21.67;51.95
65239;SHT30;51827;51.186;6.926;2023-05-24T06:23:36;21.66;52.02
65239;SHT30;51827;51.186;6.926;2023-05-24T06:24:36;21.69;52.06
65239;SHT30;51827;51.186;6.926;2023-05-24T06:25:37;21.69;52.06
65239;SHT30;51827;51.186;6.926;2023-05-24T06:26:37;21.69;52.02
65239;SHT30;51827;51.186;6.926;2023-05-24T06:27:37;21.67;52.02
65239;SHT30;51827;51.186;6.926;2023-05-24T06:28:37;21.67;51.95
65239;SHT30;51827;51.186;6.926;2023-05-24T06:29:38;21.67;51.96
65239;SHT30;51827;51.186;6.926;2023-05-24T06:30:38;21.67;51.91
65239;SHT30;51827;51.186;6.926;2023-05-24T06:31:39;21.67;51.97
65239;SHT30;51827;51.186;6.926;2023-05-24T06:32:39;21.70;51.95
65239;SHT30;51827;51.186;6.926;2023-05-24T06:33:39;21.69;51.98
65239;SHT30;51827;51.186;6.926;2023-05-24T06:34:40;21.69;51.97
65239;SHT30;51827;51.186;6.926;2023-05-24T06:35:40;21.70;52.01
65239;SHT30;51827;51.186;6.926;2023-05-24T06:36:40;21.66;51.94
65239;SHT30;51827;51.186;6.926;2023-05-24T06:37:40;21.67;52.02
65239;SHT30;51827;51.186;6.926;2023-05-24T06:38:40;21.70;51.94
65239;SHT30;51827;51.186;6.926;2023-05-24T06:39:41;21.69;51.95
65239;SHT30;51827;51.186;6.926;2023-05-24T06:40:41;21.67;51.90
65239;SHT30;51827;51.186;6.926;2023-05-24T06:41:42;21.69;51.90